Time;durP1;ratioP1;P1;durP2;ratioP2;P2;SDS_P1;SDS_P2;PMS_P1;PMS_P2;Temp;Humidity;BMP_temperature;BMP_pressure;BME280_temperature;BME280_humidity;BME280_pressure;Samples;Min_cycle;Max_cycle;Signal;HPM_P1;HPM_P2
2023/05/07 00:00:51;;;;;;;13.23;11.57;;;;;;;-146.18;100.00;67994.34;10022960;29;20047;-70
2023/05/07 00:05:48;;;;;;;13.02;11.20;;;;;;;-146.18;100.00;67994.34;10026593;28;20075;-69
2023/05/07 00:10:44;;;;;;;13.43;10.52;;;;;;;-146.18;100.00;67994.34;10032375;28;20047;-70
2023/05/07 00:15:41;;;;;;;15.32;12.00;;;;;;;-146.18;100.00;67994.34;9994596;29;20122;-72
2023/05/07 00:20:37;;;;;;;13.32;11.30;;;;;;;-146.18;100.00;67994.34;9997646;29;20628;-70
2023/05/07 00:25:34;;;;;;;14.95;12.02;;;;;;;-146.18;100.00;67994.34;9989425;28;20055;-70
2023/05/07 00:30:30;;;;;;;11.65;10.40;;;;;;;-146.18;100.00;67994.34;9983323;29;20080;-70
2023/05/07 00:35:30;;;;;;;15.95;12.00;;;;;;;-146.18;100.00;67994.34;9985937;28;20499;-69
2023/05/07 00:40:27;;;;;;;14.27;11.35;;;;;;;-146.18;100.00;67994.34;9985384;28;20058;-71
2023/05/07 00:45:27;;;;;;;16.20;11.25;;;;;;;-146.18;100.00;67994.34;9985220;29;20503;-71
2023/05/07 00:50:24;;;;;;;13.95;11.20;;;;;;;-146.18;100.00;67994.34;9990522;28;20714;-71
2023/05/07 00:55:22;;;;;;;14.02;11.32;;;;;;;-146.18;100.00;67994.34;9983494;28;20080;-71
2023/05/07 01:00:21;;;;;;;16.70;12.20;;;;;;;-146.18;100.00;67994.34;9992546;28;20071;-71
2023/05/07 01:05:18;;;;;;;14.10;11.05;;;;;;;-146.18;100.00;67994.34;9984429;29;20067;-72
2023/05/07 01:10:16;;;;;;;14.95;12.02;;;;;;;-146.18;100.00;67994.34;9990366;28;20107;-72
2023/05/07 01:15:13;;;;;;;13.88;10.95;;;;;;;-146.18;100.00;67994.34;9979755;28;20051;-71
2023/05/07 01:20:13;;;;;;;15.75;12.50;;;;;;;-146.18;100.00;67994.34;9986963;28;20073;-72
2023/05/07 01:25:10;;;;;;;15.38;11.27;;;;;;;-146.18;100.00;67994.34;9985094;28;20087;-71
2023/05/07 01:30:07;;;;;;;14.27;11.40;;;;;;;-146.18;100.00;67994.34;9984676;29;20149;-69
2023/05/07 01:35:07;;;;;;;11.63;10.43;;;;;;;-146.18;100.00;67994.34;9989277;28;20398;-68
2023/05/07 01:40:07;;;;;;;12.90;9.60;;;;;;;-146.18;100.00;67994.34;10027766;29;21671;-69
2023/05/07 01:45:04;;;;;;;11.90;10.30;;;;;;;-146.18;100.00;67994.34;10031753;28;20102;-71
2023/05/07 01:50:00;;;;;;;13.00;10.60;;;;;;;-146.18;100.00;67994.34;10034957;29;20087;-70
2023/05/07 01:54:57;;;;;;;13.18;10.15;;;;;;;-146.18;100.00;67994.34;9994454;28;20076;-71
2023/05/07 01:59:53;;;;;;;11.68;9.85;;;;;;;-146.18;100.00;67994.34;9994271;29;20051;-69
2023/05/07 02:04:50;;;;;;;11.45;10.23;;;;;;;-146.18;100.00;67994.34;10027407;29;20122;-72
2023/05/07 02:09:46;;;;;;;11.38;9.93;;;;;;;-146.18;100.00;67994.34;10034108;28;20570;-72
2023/05/07 02:14:45;;;;;;;12.98;10.43;;;;;;;-146.18;100.00;67994.34;10032353;29;20130;-70
2023/05/07 02:19:42;;;;;;;11.70;9.82;;;;;;;-146.18;100.00;67994.34;10021836;29;20047;-69
2023/05/07 02:24:38;;;;;;;10.40;9.30;;;;;;;-146.18;100.00;67994.34;10030882;29;20040;-72
2023/05/07 02:29:35;;;;;;;13.32;10.43;;;;;;;-146.18;100.00;67994.34;10028013;29;20088;-72
2023/05/07 02:34:31;;;;;;;12.40;9.43;;;;;;;-146.18;100.00;67994.34;10031403;28;20055;-72
2023/05/07 02:39:28;;;;;;;11.63;9.63;;;;;;;-146.18;100.00;67994.34;10029233;28;20136;-74
2023/05/07 02:44:24;;;;;;;12.25;10.00;;;;;;;-146.18;100.00;67994.34;10032579;28;20044;-72
2023/05/07 02:49:21;;;;;;;12.88;10.00;;;;;;;-146.18;100.00;67994.34;10024778;29;20074;-73
2023/05/07 02:54:17;;;;;;;11.77;9.57;;;;;;;-146.18;100.00;67994.34;10030234;29;20126;-70
2023/05/07 02:59:14;;;;;;;13.93;11.18;;;;;;;-146.18;100.00;67994.34;10029862;28;20136;-71
2023/05/07 03:04:10;;;;;;;11.18;9.75;;;;;;;-146.18;100.00;67994.34;10027227;28;20053;-71
2023/05/07 03:09:07;;;;;;;17.77;10.63;;;;;;;-146.18;100.00;67994.34;10027960;28;20051;-72
2023/05/07 03:14:03;;;;;;;13.10;10.18;;;;;;;-146.18;100.00;67994.34;10026206;28;20044;-71
2023/05/07 03:19:00;;;;;;;13.20;10.32;;;;;;;-146.18;100.00;67994.34;10000073;28;20147;-71
2023/05/07 03:24:00;;;;;;;12.43;10.90;;;;;;;-146.18;100.00;67994.34;9990987;29;20137;-71
2023/05/07 03:28:56;;;;;;;13.95;10.50;;;;;;;-146.18;100.00;67994.34;10024491;29;20040;-71
2023/05/07 03:33:55;;;;;;;14.25;11.85;;;;;;;-146.18;100.00;67994.34;10024690;28;20083;-71
2023/05/07 03:38:51;;;;;;;14.50;10.73;;;;;;;-146.18;100.00;67994.34;10032414;28;20059;-72
2023/05/07 03:43:47;;;;;;;10.43;9.30;;;;;;;-146.18;100.00;67994.34;10023262;29;20078;-71
2023/05/07 03:48:44;;;;;;;11.40;10.20;;;;;;;-146.18;100.00;67994.34;10027357;28;20052;-72
2023/05/07 03:53:40;;;;;;;10.88;9.43;;;;;;;-146.18;100.00;67994.34;10024455;29;20075;-72
2023/05/07 03:58:37;;;;;;;11.95;10.65;;;;;;;-146.18;100.00;67994.34;10021596;28;20573;-72
2023/05/07 04:03:33;;;;;;;15.15;11.50;;;;;;;-146.18;100.00;67994.34;10027321;28;20052;-71
2023/05/07 04:08:30;;;;;;;13.30;10.63;;;;;;;-146.18;100.00;67994.34;10027435;28;20056;-71
2023/05/07 04:13:27;;;;;;;13.27;10.82;;;;;;;-146.18;100.00;67994.34;10023425;28;20058;-71
2023/05/07 04:18:23;;;;;;;13.02;9.95;;;;;;;-146.18;100.00;67994.34;10022316;28;20040;-69
2023/05/07 04:23:20;;;;;;;11.80;9.73;;;;;;;-146.18;100.00;67994.34;10031829;28;20059;-69
2023/05/07 04:28:16;;;;;;;12.90;10.07;;;;;;;-146.18;100.00;67994.34;10011387;28;20040;-69
2023/05/07 04:33:15;;;;;;;11.35;9.27;;;;;;;-146.18;100.00;67994.34;9988035;28;20048;-69
2023/05/07 04:38:12;;;;;;;11.60;9.95;;;;;;;-146.18;100.00;67994.34;9986098;28;20044;-70
2023/05/07 04:43:09;;;;;;;11.75;9.07;;;;;;;-146.18;100.00;67994.34;9987453;28;20864;-69
2023/05/07 04:48:05;;;;;;;11.93;8.90;;;;;;;-146.18;100.00;67994.34;9987401;28;20047;-72
2023/05/07 04:53:02;;;;;;;9.95;8.88;;;;;;;-146.18;100.00;67994.34;9979654;29;20052;-72
2023/05/07 04:58:01;;;;;;;10.80;9.43;;;;;;;-146.18;100.00;67994.34;9987195;28;20048;-69
2023/05/07 05:02:57;;;;;;;11.65;9.50;;;;;;;-146.18;100.00;67994.34;9987347;28;20048;-69
2023/05/07 05:07:54;;;;;;;12.93;10.20;;;;;;;-146.18;100.00;67994.34;9989586;28;20052;-69
2023/05/07 05:12:51;;;;;;;11.27;9.85;;;;;;;-146.18;100.00;67994.34;9983904;28;20408;-69
2023/05/07 05:17:47;;;;;;;11.50;9.43;;;;;;;-146.18;100.00;67994.34;9988079;28;20043;-69
2023/05/07 05:22:44;;;;;;;11.50;9.20;;;;;;;-146.18;100.00;67994.34;9993089;28;20064;-71
2023/05/07 05:27:40;;;;;;;12.85;9.90;;;;;;;-146.18;100.00;67994.34;10010109;28;20076;-71
2023/05/07 05:32:37;;;;;;;10.82;9.18;;;;;;;-146.18;100.00;67994.34;9996039;28;20135;-72
2023/05/07 05:37:34;;;;;;;12.90;10.93;;;;;;;-146.18;100.00;67994.34;9982459;28;20511;-72
2023/05/07 05:42:30;;;;;;;13.00;11.02;;;;;;;-146.18;100.00;67994.34;9984179;28;20060;-72
2023/05/07 05:47:26;;;;;;;14.23;10.73;;;;;;;-146.18;100.00;67994.34;9987032;28;20044;-72
2023/05/07 05:52:25;;;;;;;14.15;10.80;;;;;;;-146.18;100.00;67994.34;9992283;28;20052;-72
2023/05/07 05:57:22;;;;;;;13.73;10.75;;;;;;;-146.18;100.00;67994.34;9980958;29;20048;-72
2023/05/07 06:02:18;;;;;;;11.65;9.60;;;;;;;-146.18;100.00;67994.34;9983768;28;20763;-73
2023/05/07 06:07:15;;;;;;;13.63;10.18;;;;;;;-146.18;100.00;67994.34;9985847;28;20419;-73
2023/05/07 06:12:12;;;;;;;12.15;10.82;;;;;;;-146.18;100.00;67994.34;9983033;28;20051;-73
2023/05/07 06:17:08;;;;;;;10.88;9.68;;;;;;;-146.18;100.00;67994.34;9972807;29;20060;-72
2023/05/07 06:22:05;;;;;;;11.38;9.90;;;;;;;-146.18;100.00;67994.34;9997677;28;20131;-72
2023/05/07 06:27:01;;;;;;;10.07;8.98;;;;;;;-146.18;100.00;67994.34;9986231;28;20143;-72
2023/05/07 06:32:09;;;;;;;11.00;9.82;;;;;;;-146.18;100.00;67994.34;9996657;28;20088;-72
2023/05/07 06:37:06;;;;;;;12.05;9.75;;;;;;;-146.18;100.00;67994.34;9991394;28;20080;-73
2023/05/07 06:42:04;;;;;;;10.45;9.18;;;;;;;-146.18;100.00;67994.34;9996236;28;20500;-72
2023/05/07 06:47:01;;;;;;;10.13;8.63;;;;;;;-146.18;100.00;67994.34;9990015;29;20668;-73
2023/05/07 06:51:57;;;;;;;10.65;9.55;;;;;;;-146.18;100.00;67994.34;9994491;28;20115;-69
2023/05/07 06:56:54;;;;;;;10.82;9.73;;;;;;;-146.18;100.00;67994.34;9986986;28;20119;-69
2023/05/07 07:01:53;;;;;;;10.23;8.48;;;;;;;-146.18;100.00;67994.34;9995238;28;20515;-69
2023/05/07 07:06:52;;;;;;;11.85;8.98;;;;;;;-146.18;100.00;67994.34;9985978;28;20048;-69
2023/05/07 07:11:48;;;;;;;10.45;9.35;;;;;;;-146.18;100.00;67994.34;9991460;28;20143;-69
2023/05/07 07:16:46;;;;;;;10.57;9.07;;;;;;;-146.18;100.00;67994.34;9976876;29;20086;-70
2023/05/07 07:21:43;;;;;;;10.48;9.38;;;;;;;-146.18;100.00;67994.34;9993326;29;20059;-69
2023/05/07 07:26:39;;;;;;;11.57;8.68;;;;;;;-146.18;100.00;67994.34;9991058;29;20072;-69
2023/05/07 07:31:36;;;;;;;9.80;8.77;;;;;;;-146.18;100.00;67994.34;9981970;28;20056;-69
2023/05/07 07:36:32;;;;;;;9.82;8.80;;;;;;;-146.18;100.00;67994.34;9992271;28;20040;-70
2023/05/07 07:41:41;;;;;;;9.27;8.27;;;;;;;-146.18;100.00;67994.34;9997576;28;20136;-69
2023/05/07 07:46:38;;;;;;;9.13;8.27;;;;;;;-146.18;100.00;67994.34;9995043;28;20154;-69
2023/05/07 07:51:35;;;;;;;8.40;7.60;;;;;;;-146.18;100.00;67994.34;9991043;28;20048;-70
2023/05/07 07:56:34;;;;;;;8.63;7.82;;;;;;;-146.18;100.00;67994.34;9983740;28;20095;-70
2023/05/07 08:01:34;;;;;;;9.75;8.52;;;;;;;-146.18;100.00;67994.34;9994291;28;20051;-70
2023/05/07 08:06:30;;;;;;;9.05;8.15;;;;;;;-146.18;100.00;67994.34;10024964;28;20581;-71
2023/05/07 08:11:27;;;;;;;10.93;7.90;;;;;;;-146.18;100.00;67994.34;10038380;28;20138;-71
2023/05/07 08:16:24;;;;;;;9.82;8.07;;;;;;;-146.18;100.00;67994.34;10013029;28;20115;-74
2023/05/07 08:21:20;;;;;;;10.02;8.18;;;;;;;-146.18;100.00;67994.34;9976106;29;20425;-75
2023/05/07 08:26:17;;;;;;;9.88;8.88;;;;;;;-146.18;100.00;67994.34;9991256;29;20039;-75
2023/05/07 08:31:13;;;;;;;8.90;8.00;;;;;;;-146.18;100.00;67994.34;9972036;29;20119;-75
2023/05/07 08:36:10;;;;;;;8.57;7.78;;;;;;;-146.18;100.00;67994.34;9970564;29;20051;-75
2023/05/07 08:41:07;;;;;;;9.90;8.82;;;;;;;-146.18;100.00;67994.34;9972015;29;20045;-75
2023/05/07 08:46:04;;;;;;;9.00;8.15;;;;;;;-146.18;100.00;67994.34;9968460;29;20051;-74
2023/05/07 08:51:03;;;;;;;10.48;8.30;;;;;;;-146.18;100.00;67994.34;9963933;29;20104;-73
2023/05/07 08:56:00;;;;;;;10.15;9.05;;;;;;;-146.18;100.00;67994.34;9968989;29;20391;-72
2023/05/07 09:00:58;;;;;;;9.40;8.50;;;;;;;-146.18;100.00;67994.34;9982410;29;20074;-72
2023/05/07 09:05:55;;;;;;;9.48;8.48;;;;;;;-146.18;100.00;67994.34;10008964;29;20139;-70
2023/05/07 09:10:52;;;;;;;8.50;7.68;;;;;;;-146.18;100.00;67994.34;10017867;28;20056;-70
2023/05/07 09:15:48;;;;;;;9.10;8.18;;;;;;;-146.18;100.00;67994.34;9992767;29;20064;-69
2023/05/07 09:20:44;;;;;;;9.77;7.93;;;;;;;-146.18;100.00;67994.34;10021559;28;20115;-72
2023/05/07 09:25:42;;;;;;;8.35;7.55;;;;;;;-146.18;100.00;67994.34;9992646;29;20517;-73
2023/05/07 09:30:38;;;;;;;7.75;6.95;;;;;;;-146.18;100.00;67994.34;10022654;28;20047;-73
2023/05/07 09:35:35;;;;;;;12.55;8.20;;;;;;;-146.18;100.00;67994.34;10022627;28;20446;-72
2023/05/07 09:40:31;;;;;;;8.20;7.40;;;;;;;-146.18;100.00;67994.34;10005289;28;20059;-73
2023/05/07 09:45:28;;;;;;;11.95;7.95;;;;;;;-146.18;100.00;67994.34;10020687;28;20119;-72
2023/05/07 09:50:43;;;;;;;8.07;7.28;;;;;;;-146.18;100.00;67994.34;10022042;29;20518;-72
2023/05/07 09:55:40;;;;;;;7.55;6.85;;;;;;;-146.18;100.00;67994.34;10017239;28;20044;-72
2023/05/07 10:00:37;;;;;;;9.38;7.53;;;;;;;-146.18;100.00;67994.34;9998855;29;20525;-72
2023/05/07 10:05:35;;;;;;;7.72;6.93;;;;;;;-146.18;100.00;67994.34;10031845;28;20047;-72
2023/05/07 10:10:33;;;;;;;7.32;6.63;;;;;;;-146.18;100.00;67994.34;9987576;29;20048;-72
2023/05/07 10:15:30;;;;;;;8.00;7.10;;;;;;;-146.18;100.00;67994.34;9993451;29;20059;-74
2023/05/07 10:20:27;;;;;;;8.30;7.50;;;;;;;-146.18;100.00;67994.34;9998662;29;20051;-72
2023/05/07 10:25:30;;;;;;;7.82;7.13;;;;;;;-146.18;100.00;67994.34;10035358;28;20057;-73
2023/05/07 10:30:47;;;;;;;7.93;7.18;;;;;;;-146.18;100.00;67994.34;10035705;28;20178;-73
2023/05/07 10:35:46;;;;;;;12.85;7.10;;;;;;;-146.18;100.00;67994.34;10029102;29;20139;-73
2023/05/07 10:40:43;;;;;;;7.53;6.85;;;;;;;-146.18;100.00;67994.34;10032357;28;20063;-73
2023/05/07 10:46:03;;;;;;;7.38;6.63;;;;;;;-146.18;100.00;67994.34;10023316;29;20047;-72
2023/05/07 10:51:26;;;;;;;8.50;7.68;;;;;;;-146.18;100.00;67994.34;10028285;28;20060;-73
2023/05/07 10:56:23;;;;;;;8.68;7.75;;;;;;;-146.18;100.00;67994.34;10029241;28;20148;-73
2023/05/07 11:01:49;;;;;;;8.35;7.65;;;;;;;-146.18;100.00;67994.34;10019256;28;20052;-72
2023/05/07 11:07:12;;;;;;;7.38;6.78;;;;;;;-146.18;100.00;67994.34;9993906;29;20041;-73
2023/05/07 11:12:09;;;;;;;6.93;6.22;;;;;;;-146.18;100.00;67994.34;10007025;29;20126;-72
2023/05/07 11:17:06;;;;;;;8.07;7.38;;;;;;;-146.18;100.00;67994.34;10034413;28;20054;-73
2023/05/07 11:22:03;;;;;;;7.32;6.72;;;;;;;-146.18;100.00;67994.34;10014815;28;20126;-72
2023/05/07 11:27:00;;;;;;;7.88;7.07;;;;;;;-146.18;100.00;67994.34;9992026;29;20079;-72
2023/05/07 11:31:57;;;;;;;7.32;6.70;;;;;;;-146.18;100.00;67994.34;10015464;29;20044;-73
2023/05/07 11:36:55;;;;;;;7.25;6.65;;;;;;;-146.18;100.00;67994.34;10019822;29;20056;-73
2023/05/07 11:41:52;;;;;;;7.45;6.82;;;;;;;-146.18;100.00;67994.34;10036189;28;20564;-73
2023/05/07 11:46:49;;;;;;;7.47;6.78;;;;;;;-146.18;100.00;67994.34;10025547;28;20126;-74
2023/05/07 11:51:46;;;;;;;8.13;7.32;;;;;;;-146.18;100.00;67994.34;10031976;28;20130;-74
2023/05/07 11:56:44;;;;;;;8.25;7.55;;;;;;;-146.18;100.00;67994.34;10020205;28;20077;-72
2023/05/07 12:01:45;;;;;;;7.30;6.60;;;;;;;-146.18;100.00;67994.34;10014132;29;20123;-75
2023/05/07 12:06:42;;;;;;;7.53;6.82;;;;;;;-146.18;100.00;67994.34;10008813;28;20075;-74
2023/05/07 12:11:39;;;;;;;7.20;6.50;;;;;;;-146.18;100.00;67994.34;10012828;29;20051;-76
2023/05/07 12:16:36;;;;;;;8.15;7.45;;;;;;;-146.18;100.00;67994.34;10011259;29;20048;-76
2023/05/07 12:21:33;;;;;;;7.63;6.88;;;;;;;-146.18;100.00;67994.34;10010840;28;20090;-75
2023/05/07 12:26:30;;;;;;;7.38;6.68;;;;;;;-146.18;100.00;67994.34;10007769;29;20054;-76
2023/05/07 12:31:26;;;;;;;6.65;6.05;;;;;;;-146.18;100.00;67994.34;10008538;28;20080;-76
2023/05/07 12:36:23;;;;;;;6.90;6.20;;;;;;;-146.18;100.00;67994.34;10005795;29;20047;-76
2023/05/07 12:41:25;;;;;;;6.68;6.07;;;;;;;-146.18;100.00;67994.34;10008607;29;20143;-76
2023/05/07 12:46:23;;;;;;;6.50;5.90;;;;;;;-146.18;100.00;67994.34;10028504;28;20074;-76
2023/05/07 12:51:19;;;;;;;7.25;6.00;;;;;;;-146.18;100.00;67994.34;10041563;28;20048;-75
2023/05/07 12:56:23;;;;;;;7.43;6.72;;;;;;;-146.18;100.00;67994.34;10026928;28;20066;-76
2023/05/07 13:01:19;;;;;;;7.38;6.40;;;;;;;-146.18;100.00;67994.34;10030336;28;20058;-76
2023/05/07 13:06:15;;;;;;;6.72;5.88;;;;;;;-146.18;100.00;67994.34;10022439;28;20106;-76
2023/05/07 13:11:13;;;;;;;6.20;5.70;;;;;;;-146.18;100.00;67994.34;10026386;29;20494;-76
2023/05/07 13:16:10;;;;;;;6.63;5.93;;;;;;;-146.18;100.00;67994.34;10035650;29;20040;-76
2023/05/07 13:21:07;;;;;;;6.63;6.13;;;;;;;-146.18;100.00;67994.34;10024952;28;20040;-76
2023/05/07 13:26:04;;;;;;;6.35;5.75;;;;;;;-146.18;100.00;67994.34;9983461;29;20044;-76
2023/05/07 13:31:20;;;;;;;6.15;5.55;;;;;;;-146.18;100.00;67994.34;9982518;29;20067;-75
2023/05/07 13:36:17;;;;;;;5.95;5.45;;;;;;;-146.18;100.00;67994.34;9998437;29;20041;-76
2023/05/07 13:41:14;;;;;;;6.13;5.53;;;;;;;-146.18;100.00;67994.34;9997966;29;20054;-75
2023/05/07 13:46:11;;;;;;;6.47;5.93;;;;;;;-146.18;100.00;67994.34;9986043;29;20071;-75
2023/05/07 13:51:07;;;;;;;6.03;5.53;;;;;;;-146.18;100.00;67994.34;10009568;29;20414;-75
2023/05/07 13:56:04;;;;;;;5.97;5.47;;;;;;;-146.18;100.00;67994.34;10029764;28;20764;-75
2023/05/07 14:01:01;;;;;;;6.55;6.05;;;;;;;-146.18;100.00;67994.34;10039620;28;20415;-76
2023/05/07 14:05:59;;;;;;;5.80;5.15;;;;;;;-146.18;100.00;67994.34;10029655;28;20053;-76
2023/05/07 14:10:56;;;;;;;8.15;5.22;;;;;;;-146.18;100.00;67994.34;10039740;28;20098;-76
2023/05/07 14:15:52;;;;;;;6.00;5.40;;;;;;;-146.18;100.00;67994.34;10028498;29;20528;-76
2023/05/07 14:20:49;;;;;;;6.18;5.07;;;;;;;-146.18;100.00;67994.34;10035220;28;20072;-76
2023/05/07 14:25:47;;;;;;;5.88;4.88;;;;;;;-146.18;100.00;67994.34;9998287;29;20527;-76
2023/05/07 14:30:43;;;;;;;4.97;4.57;;;;;;;-146.18;100.00;67994.34;9993576;29;20510;-76
2023/05/07 14:35:40;;;;;;;5.72;5.22;;;;;;;-146.18;100.00;67994.34;10005047;29;20647;-76
2023/05/07 14:40:36;;;;;;;5.32;4.93;;;;;;;-146.18;100.00;67994.34;9996095;29;20075;-75
2023/05/07 14:45:33;;;;;;;5.97;5.00;;;;;;;-146.18;100.00;67994.34;9999221;29;20537;-76
2023/05/07 14:50:30;;;;;;;6.55;5.10;;;;;;;-146.18;100.00;67994.34;10034077;28;20235;-76
2023/05/07 14:55:26;;;;;;;5.53;4.70;;;;;;;-146.18;100.00;67994.34;10035648;28;20052;-76
2023/05/07 15:00:23;;;;;;;5.78;4.80;;;;;;;-146.18;100.00;67994.34;10027169;28;20523;-76
2023/05/07 15:05:19;;;;;;;6.32;4.55;;;;;;;-146.18;100.00;67994.34;9994466;29;20210;-76
2023/05/07 15:10:16;;;;;;;5.47;4.97;;;;;;;-146.18;100.00;67994.34;10009894;29;20558;-76
2023/05/07 15:15:12;;;;;;;5.70;5.18;;;;;;;-146.18;100.00;67994.34;10030093;28;20453;-76
2023/05/07 15:20:09;;;;;;;5.38;4.70;;;;;;;-146.18;100.00;67994.34;10039980;28;20043;-75
2023/05/07 15:25:06;;;;;;;6.07;5.20;;;;;;;-146.18;100.00;67994.34;10033252;28;20048;-75
2023/05/07 15:30:03;;;;;;;5.43;4.93;;;;;;;-146.18;100.00;67994.34;10026712;28;20422;-75
2023/05/07 15:34:59;;;;;;;7.32;4.78;;;;;;;-146.18;100.00;67994.34;10036453;29;20054;-75
2023/05/07 15:39:56;;;;;;;4.93;4.50;;;;;;;-146.18;100.00;67994.34;10026316;28;20074;-75
2023/05/07 15:44:52;;;;;;;5.32;4.88;;;;;;;-146.18;100.00;67994.34;10028244;28;20051;-75
2023/05/07 15:49:48;;;;;;;6.55;5.28;;;;;;;-146.18;100.00;67994.34;10027051;29;20130;-74
2023/05/07 15:54:45;;;;;;;5.55;5.05;;;;;;;-146.18;100.00;67994.34;10033415;28;20126;-74
2023/05/07 15:59:42;;;;;;;6.20;5.28;;;;;;;-146.18;100.00;67994.34;10030069;28;20207;-74
2023/05/07 16:04:38;;;;;;;5.60;5.10;;;;;;;-146.18;100.00;67994.34;10023203;28;20059;-73
2023/05/07 16:09:35;;;;;;;5.28;4.88;;;;;;;-146.18;100.00;67994.34;10041343;28;20050;-73
2023/05/07 16:14:31;;;;;;;5.00;4.60;;;;;;;-146.18;100.00;67994.34;10023493;29;20071;-75
2023/05/07 16:19:28;;;;;;;5.15;4.68;;;;;;;-146.18;100.00;67994.34;10030000;28;20418;-75
2023/05/07 16:24:25;;;;;;;5.40;4.90;;;;;;;-146.18;100.00;67994.34;10024580;29;20044;-75
2023/05/07 16:29:22;;;;;;;5.15;4.75;;;;;;;-146.18;100.00;67994.34;10019940;28;20737;-75
2023/05/07 16:34:18;;;;;;;5.50;5.10;;;;;;;-146.18;100.00;67994.34;10029958;28;20869;-75
2023/05/07 16:39:15;;;;;;;6.05;5.00;;;;;;;-146.18;100.00;67994.34;10031868;28;20556;-76
2023/05/07 16:44:11;;;;;;;5.70;5.20;;;;;;;-146.18;100.00;67994.34;10024708;28;20139;-75
2023/05/07 16:49:09;;;;;;;6.63;5.93;;;;;;;-146.18;100.00;67994.34;10029940;28;20078;-75
2023/05/07 16:54:05;;;;;;;6.70;5.30;;;;;;;-146.18;100.00;67994.34;10028486;28;20185;-75
2023/05/07 16:59:02;;;;;;;6.68;5.38;;;;;;;-146.18;100.00;67994.34;10023502;29;20040;-75
2023/05/07 17:03:58;;;;;;;5.63;5.13;;;;;;;-146.18;100.00;67994.34;10027309;28;20044;-75
2023/05/07 17:08:55;;;;;;;6.18;5.10;;;;;;;-146.18;100.00;67994.34;10025814;29;20054;-75
2023/05/07 17:13:51;;;;;;;6.13;5.28;;;;;;;-146.18;100.00;67994.34;10021083;29;20485;-75
2023/05/07 17:18:48;;;;;;;5.65;4.70;;;;;;;-146.18;100.00;67994.34;10029327;29;20044;-75
2023/05/07 17:23:44;;;;;;;5.10;4.70;;;;;;;-146.18;100.00;67994.34;9996855;28;20040;-76
2023/05/07 17:28:41;;;;;;;7.22;5.15;;;;;;;-146.18;100.00;67994.34;10029987;29;20507;-76
2023/05/07 17:33:37;;;;;;;5.63;5.13;;;;;;;-146.18;100.00;67994.34;10033656;28;20576;-75
2023/05/07 17:38:34;;;;;;;6.07;5.57;;;;;;;-146.18;100.00;67994.34;10031588;28;20050;-75
2023/05/07 17:43:30;;;;;;;5.47;4.97;;;;;;;-146.18;100.00;67994.34;10028400;28;20075;-75
2023/05/07 17:48:27;;;;;;;5.43;4.93;;;;;;;-146.18;100.00;67994.34;10033360;28;20050;-70
2023/05/07 17:53:25;;;;;;;6.10;5.03;;;;;;;-146.18;100.00;67994.34;10023659;28;20526;-69
2023/05/07 17:58:24;;;;;;;5.68;5.13;;;;;;;-146.18;100.00;67994.34;10024694;28;20044;-70
2023/05/07 18:03:23;;;;;;;6.72;4.97;;;;;;;-146.18;100.00;67994.34;10023988;29;20055;-69
2023/05/07 18:08:19;;;;;;;5.55;5.07;;;;;;;-146.18;100.00;67994.34;10020109;29;20047;-69
2023/05/07 18:13:16;;;;;;;6.07;5.50;;;;;;;-146.18;100.00;67994.34;10023520;28;20667;-69
2023/05/07 18:18:12;;;;;;;6.13;5.10;;;;;;;-146.18;100.00;67994.34;10002332;28;20048;-70
2023/05/07 18:23:09;;;;;;;6.00;5.50;;;;;;;-146.18;100.00;67994.34;10000387;29;20636;-69
2023/05/07 18:28:06;;;;;;;5.88;5.38;;;;;;;-146.18;100.00;67994.34;10015193;29;20048;-69
2023/05/07 18:33:02;;;;;;;5.60;5.10;;;;;;;-146.18;100.00;67994.34;10030478;28;20518;-68
2023/05/07 18:37:59;;;;;;;5.97;5.47;;;;;;;-146.18;100.00;67994.34;10024688;28;20067;-69
2023/05/07 18:42:56;;;;;;;6.72;6.03;;;;;;;-146.18;100.00;67994.34;10032319;28;20113;-69
2023/05/07 18:47:52;;;;;;;5.68;5.18;;;;;;;-146.18;100.00;67994.34;10022869;29;20083;-69
2023/05/07 18:52:49;;;;;;;6.20;5.60;;;;;;;-146.18;100.00;67994.34;10034941;28;20055;-69
2023/05/07 18:57:45;;;;;;;7.30;5.00;;;;;;;-146.18;100.00;67994.34;10013215;28;20139;-69
2023/05/07 19:02:42;;;;;;;6.43;4.90;;;;;;;-146.18;100.00;67994.34;10015289;29;20085;-69
2023/05/07 19:07:38;;;;;;;5.32;4.82;;;;;;;-146.18;100.00;67994.34;10006666;28;20046;-69
2023/05/07 19:12:34;;;;;;;5.65;5.07;;;;;;;-146.18;100.00;67994.34;10013882;29;20600;-69
2023/05/07 19:17:31;;;;;;;5.65;5.15;;;;;;;-146.18;100.00;67994.34;10023410;28;20044;-69
2023/05/07 19:22:27;;;;;;;6.50;5.90;;;;;;;-146.18;100.00;67994.34;10013574;28;20463;-69
2023/05/07 19:27:24;;;;;;;5.90;5.25;;;;;;;-146.18;100.00;67994.34;10010794;29;20048;-69
2023/05/07 19:32:20;;;;;;;5.65;5.15;;;;;;;-146.18;100.00;67994.34;10014994;28;20040;-69
2023/05/07 19:37:17;;;;;;;6.07;5.55;;;;;;;-146.18;100.00;67994.34;9996548;29;20119;-69
2023/05/07 19:42:14;;;;;;;6.05;5.55;;;;;;;-146.18;100.00;67994.34;9995474;29;20056;-69
2023/05/07 19:47:10;;;;;;;6.35;5.82;;;;;;;-146.18;100.00;67994.34;10005536;29;20086;-69
2023/05/07 19:52:07;;;;;;;6.40;5.90;;;;;;;-146.18;100.00;67994.34;10031477;28;20047;-69
2023/05/07 19:57:04;;;;;;;6.22;5.72;;;;;;;-146.18;100.00;67994.34;10005007;28;20056;-72
2023/05/07 20:02:00;;;;;;;7.00;6.32;;;;;;;-146.18;100.00;67994.34;9982685;28;20066;-69
2023/05/07 20:06:58;;;;;;;6.80;6.20;;;;;;;-146.18;100.00;67994.34;9982758;29;20048;-70
2023/05/07 20:11:55;;;;;;;6.82;6.32;;;;;;;-146.18;100.00;67994.34;9996753;29;20097;-72
2023/05/07 20:16:55;;;;;;;6.68;6.07;;;;;;;-146.18;100.00;67994.34;10017363;29;20510;-71
2023/05/07 20:21:52;;;;;;;6.70;5.90;;;;;;;-146.18;100.00;67994.34;10013921;28;20120;-72
2023/05/07 20:26:48;;;;;;;7.22;6.63;;;;;;;-146.18;100.00;67994.34;10004127;29;20043;-68
2023/05/07 20:31:44;;;;;;;6.53;5.93;;;;;;;-146.18;100.00;67994.34;10027653;29;20051;-68
2023/05/07 20:36:41;;;;;;;7.25;6.32;;;;;;;-146.18;100.00;67994.34;10006260;28;20135;-68
2023/05/07 20:41:37;;;;;;;7.00;6.30;;;;;;;-146.18;100.00;67994.34;9993471;29;20048;-69
2023/05/07 20:46:36;;;;;;;7.35;6.63;;;;;;;-146.18;100.00;67994.34;10004887;29;20135;-68
2023/05/07 20:51:32;;;;;;;7.00;6.30;;;;;;;-146.18;100.00;67994.34;10028536;28;20563;-68
2023/05/07 20:56:29;;;;;;;7.68;6.97;;;;;;;-146.18;100.00;67994.34;10017181;29;20126;-68
2023/05/07 21:01:25;;;;;;;9.57;6.50;;;;;;;-146.18;100.00;67994.34;10028769;28;20066;-69
2023/05/07 21:06:22;;;;;;;8.38;6.60;;;;;;;-146.18;100.00;67994.34;10020603;28;20138;-69
2023/05/07 21:11:18;;;;;;;6.88;6.22;;;;;;;-146.18;100.00;67994.34;9996465;29;20106;-69
2023/05/07 21:16:17;;;;;;;7.60;6.57;;;;;;;-146.18;100.00;67994.34;10034250;28;20070;-68
2023/05/07 21:21:15;;;;;;;7.93;6.15;;;;;;;-146.18;100.00;67994.34;10029081;28;20180;-68
2023/05/07 21:26:18;;;;;;;6.43;5.82;;;;;;;-146.18;100.00;67994.34;10021215;28;20052;-68
2023/05/07 21:31:15;;;;;;;6.80;6.15;;;;;;;-146.18;100.00;67994.34;10015602;28;20071;-68
2023/05/07 21:36:11;;;;;;;6.95;6.28;;;;;;;-146.18;100.00;67994.34;10030011;28;20047;-68
2023/05/07 21:41:08;;;;;;;6.90;6.30;;;;;;;-146.18;100.00;67994.34;10038476;28;20060;-68
2023/05/07 21:46:07;;;;;;;7.32;6.63;;;;;;;-146.18;100.00;67994.34;10033695;28;20054;-69
2023/05/07 21:51:06;;;;;;;7.70;6.32;;;;;;;-146.18;100.00;67994.34;10032911;28;20071;-68
2023/05/07 21:56:03;;;;;;;6.93;6.28;;;;;;;-146.18;100.00;67994.34;10032446;28;20048;-68
2023/05/07 22:01:00;;;;;;;6.40;5.85;;;;;;;-146.18;100.00;67994.34;10040184;28;20530;-67
2023/05/07 22:05:57;;;;;;;6.47;5.88;;;;;;;-146.18;100.00;67994.34;10034092;28;20048;-69
2023/05/07 22:10:53;;;;;;;6.38;5.78;;;;;;;-146.18;100.00;67994.34;10044126;28;20110;-67